NCAR-RAP Real-Time Weather Data

Output produced by METARs form (19 June 2019  11:46 UTC)
found at http://weather.rap.ucar.edu/surface/
 
KEKO 191056Z AUTO 00000KT 10SM CLR 10/04 A3010 RMK AO2 SLP145 T01000044
KEKO 190956Z AUTO 00000KT 10SM CLR 12/06 A3010 RMK AO2 SLP144 T01170056
KEKO 190856Z AUTO 00000KT 10SM CLR 12/06 A3011 RMK AO2 SLP147 T01170061 50001
KEKO 190756Z AUTO 00000KT 10SM CLR 14/07 A3011 RMK AO2 SLP145 T01390072 402890094
KEKO 190656Z AUTO 00000KT 10SM CLR 14/06 A3010 RMK AO2 SLP143 T01440056
KEKO 190556Z AUTO 03003KT 10SM CLR 19/06 A3010 RMK AO2 SLP140 T01890056 10289 20172 53012
KEKO 190456Z AUTO 32003KT 10SM CLR 19/05 A3009 RMK AO2 SLP138 T01940050
KEKO 190356Z AUTO 19004KT 10SM CLR 20/09 A3007 RMK AO2 SLP132 T02000089
KEKO 190256Z AUTO 26003KT 10SM CLR 25/05 A3006 RMK AO2 SLP128 T02500050 56002
KEKO 190156Z AUTO 33008KT 10SM CLR 28/03 A3006 RMK AO2 SLP126 T02780028
KEKO 190056Z AUTO 32011KT 10SM CLR 28/03 A3006 RMK AO2 WSHFT 0024 SLP129 T02830028
KEKO 190044Z AUTO 29009KT 10SM CLR 29/03 A3006 RMK AO2 WSHFT 0024 T02890028
KEKO 182356Z AUTO 31007KT 10SM CLR 29/03 A3007 RMK AO2 SLP134 T02890033 10289 20239 58014
KEKO 182256Z AUTO 27016KT 10SM CLR 29/05 A3009 RMK AO2 SLP136 T02890050
KEKO 182156Z AUTO VRB05KT 10SM CLR 27/05 A3010 RMK AO2 SLP143 T02720050
KEKO 182056Z AUTO VRB03KT 10SM CLR 27/03 A3012 RMK AO2 SLP148 T02720028 56011
KEKO 181956Z AUTO 10SM CLR 27/05 A3013 RMK AO2 SLP151 T02670050
KEKO 181856Z AUTO 21008KT 10SM CLR 27/05 A3014 RMK AO2 SLP153 T02670050
KEKO 181756Z AUTO VRB03KT 10SM CLR 23/08 A3016 RMK AO2 SLP162 T02330078 10233 20094 58003
KEKO 181656Z AUTO 00000KT 10SM CLR 21/08 A3016 RMK AO2 SLP165 T02110083